Погода Ватолихана неделю

Тверская область, Россия

24 - 30 мая
  • 24мая
    Сегодня
    +8°
    +23°
    Ясно и безоблачно
    ВремяПогодаТемператураВлажностьДавлениеВетер, м/сВероятность осадков
    00:00Ясно и безоблачно+12°C52 %755 мм3.1 м/с2 %
    03:00Ясно и безоблачно+10°C66 %756 мм2.5 м/с2 %
    06:00Ясно и безоблачно+10°C67 %757 мм2.8 м/с2 %
    09:00Ясно и безоблачно+17°C51 %758 мм3.0 м/с2 %
    12:00Ясно и безоблачно+21°C33 %758 мм4.7 м/с2 %
    15:00Ясно и безоблачно+23°C28 %757 мм4.4 м/с2 %
    18:00Ясно и безоблачно+22°C29 %756 мм3.7 м/с2 %
    21:00Ясно и безоблачно+17°C47 %756 мм2.9 м/с2 %
  • 25мая
    Суббота
    +11°
    +25°
    Ясно и безоблачно
    ВремяПогодаТемператураВлажностьДавлениеВетер, м/сВероятность осадков
    00:00Ясно и безоблачно+11°C53 %756 мм3.0 м/с2 %
    03:00Ясно и безоблачно+9°C64 %756 мм2.4 м/с2 %
    06:00Ясно и безоблачно+10°C71 %756 мм2.5 м/с2 %
    09:00Ясно и безоблачно+17°C58 %756 мм2.1 м/с2 %
    12:00Ясно и безоблачно+22°C42 %755 мм2.3 м/с2 %
    15:00Ясно и безоблачно+24°C37 %754 мм2.2 м/с2 %
    18:00Ясно и безоблачно+24°C37 %753 мм1.8 м/с2 %
    21:00Ясно и безоблачно+20°C49 %753 мм1.2 м/с2 %
  • 26мая
    Воскресенье
    +12°
    +27°
    Облачно с прояснениями
    ВремяПогодаТемператураВлажностьДавлениеВетер, м/сВероятность осадков
    00:00Ясно и безоблачно+16°C61 %753 мм1.3 м/с2 %
    03:00Ясно и безоблачно+14°C75 %753 мм1.8 м/с2 %
    06:00Ясно и безоблачно+14°C81 %753 мм1.7 м/с2 %
    09:00Ясно и безоблачно+21°C59 %753 мм1.0 м/с2 %
    12:00Облачно с прояснениями+25°C37 %753 мм1.9 м/с3 %
    15:00Облачно с прояснениями+25°C36 %753 мм2.8 м/с19 %
    18:00Облачно с прояснениями+25°C49 %753 мм3.7 м/с27 %
    21:00Практически безоблачно+20°C74 %753 мм2.1 м/с12 %
  • 27мая
    Понедельник
    +12°
    +25°
    Ясно и безоблачно
    ВремяПогодаТемператураВлажностьДавлениеВетер, м/сВероятность осадков
    00:00Облачно с прояснениями+14°C87 %753 мм2.3 м/с2 %
    03:00Небольшая облачность+13°C93 %754 мм2.4 м/с2 %
    06:00Ясно и безоблачно+13°C91 %755 мм2.8 м/с2 %
    09:00Ясно и безоблачно+19°C66 %755 мм3.1 м/с2 %
    12:00Ясно и безоблачно+23°C46 %755 мм3.3 м/с5 %
    15:00Ясно и безоблачно+24°C39 %755 мм2.9 м/с9 %
    18:00Практически безоблачно+25°C36 %754 мм2.4 м/с14 %
    21:00Ясно и безоблачно+20°C59 %754 мм1.9 м/с3 %
  • 28мая
    Вторник
    +12°
    +25°
    Ясно и безоблачно
    ВремяПогодаТемператураВлажностьДавлениеВетер, м/сВероятность осадков
    00:00Ясно и безоблачно+15°C68 %754 мм2.4 м/с2 %
    03:00Практически безоблачно+13°C73 %754 мм2.3 м/с2 %
    06:00Ясно и безоблачно+13°C72 %754 мм2.4 м/с2 %
    09:00Ясно и безоблачно+20°C55 %755 мм2.1 м/с2 %
    12:00Практически безоблачно+23°C41 %754 мм2.2 м/с5 %
    15:00Ясно и безоблачно+24°C36 %754 мм2.0 м/с10 %
    18:00Ясно и безоблачно+24°C36 %753 мм1.9 м/с6 %
    21:00Ясно и безоблачно+19°C58 %752 мм2.1 м/с3 %
Мы используем cookies
Соглашаюсь